sensor_id;sensor_type;location;lat;lon;timestamp;P1;durP1;ratioP1;P2;durP2;ratioP2
42742;SDS011;28397;44.552;-0.848;2023-08-12T00:00:06;11.30;;;3.70;;
42742;SDS011;28397;44.552;-0.848;2023-08-12T00:02:38;12.20;;;3.53;;
42742;SDS011;28397;44.552;-0.848;2023-08-12T00:05:06;10.25;;;3.55;;
42742;SDS011;28397;44.552;-0.848;2023-08-12T00:07:33;10.60;;;3.25;;
42742;SDS011;28397;44.552;-0.848;2023-08-12T00:10:00;11.50;;;3.70;;
42742;SDS011;28397;44.552;-0.848;2023-08-12T00:12:28;10.82;;;3.67;;
42742;SDS011;28397;44.552;-0.848;2023-08-12T00:14:54;12.57;;;3.20;;
42742;SDS011;28397;44.552;-0.848;2023-08-12T00:17:20;11.68;;;3.63;;
42742;SDS011;28397;44.552;-0.848;2023-08-12T00:19:46;12.23;;;3.85;;
42742;SDS011;28397;44.552;-0.848;2023-08-12T00:22:12;11.40;;;3.22;;
42742;SDS011;28397;44.552;-0.848;2023-08-12T00:24:38;12.73;;;3.30;;
42742;SDS011;28397;44.552;-0.848;2023-08-12T00:27:04;12.65;;;3.72;;
42742;SDS011;28397;44.552;-0.848;2023-08-12T00:29:31;11.35;;;3.25;;
42742;SDS011;28397;44.552;-0.848;2023-08-12T00:31:57;10.68;;;3.58;;
42742;SDS011;28397;44.552;-0.848;2023-08-12T00:34:23;15.05;;;3.53;;
42742;SDS011;28397;44.552;-0.848;2023-08-12T00:36:49;10.23;;;3.40;;
42742;SDS011;28397;44.552;-0.848;2023-08-12T00:39:14;13.20;;;3.40;;
42742;SDS011;28397;44.552;-0.848;2023-08-12T00:41:40;14.75;;;3.90;;
42742;SDS011;28397;44.552;-0.848;2023-08-12T00:44:06;15.45;;;3.90;;
42742;SDS011;28397;44.552;-0.848;2023-08-12T00:46:32;10.77;;;3.40;;
42742;SDS011;28397;44.552;-0.848;2023-08-12T00:48:59;14.80;;;4.20;;
42742;SDS011;28397;44.552;-0.848;2023-08-12T00:51:25;10.65;;;3.90;;
42742;SDS011;28397;44.552;-0.848;2023-08-12T00:53:51;11.13;;;3.72;;
42742;SDS011;28397;44.552;-0.848;2023-08-12T00:56:17;15.10;;;4.43;;
42742;SDS011;28397;44.552;-0.848;2023-08-12T00:58:43;12.93;;;4.00;;
42742;SDS011;28397;44.552;-0.848;2023-08-12T01:01:11;12.48;;;4.65;;
42742;SDS011;28397;44.552;-0.848;2023-08-12T01:03:37;14.98;;;4.90;;
42742;SDS011;28397;44.552;-0.848;2023-08-12T01:06:03;13.15;;;4.63;;
42742;SDS011;28397;44.552;-0.848;2023-08-12T01:08:30;11.65;;;3.90;;
42742;SDS011;28397;44.552;-0.848;2023-08-12T01:11:42;14.35;;;4.68;;
42742;SDS011;28397;44.552;-0.848;2023-08-12T01:13:53;11.25;;;4.10;;
42742;SDS011;28397;44.552;-0.848;2023-08-12T01:16:35;14.65;;;4.47;;
42742;SDS011;28397;44.552;-0.848;2023-08-12T01:19:06;11.73;;;4.18;;
42742;SDS011;28397;44.552;-0.848;2023-08-12T01:21:34;14.20;;;4.15;;
42742;SDS011;28397;44.552;-0.848;2023-08-12T01:24:06;9.85;;;4.03;;
42742;SDS011;28397;44.552;-0.848;2023-08-12T01:26:32;13.63;;;4.18;;
42742;SDS011;28397;44.552;-0.848;2023-08-12T01:28:57;13.10;;;4.20;;
42742;SDS011;28397;44.552;-0.848;2023-08-12T01:31:26;11.98;;;3.72;;
42742;SDS011;28397;44.552;-0.848;2023-08-12T01:34:14;11.15;;;4.32;;
42742;SDS011;28397;44.552;-0.848;2023-08-12T01:36:49;11.10;;;4.22;;
42742;SDS011;28397;44.552;-0.848;2023-08-12T01:39:20;9.65;;;4.10;;
42742;SDS011;28397;44.552;-0.848;2023-08-12T01:41:48;9.98;;;4.18;;
42742;SDS011;28397;44.552;-0.848;2023-08-12T01:44:15;11.32;;;4.38;;
42742;SDS011;28397;44.552;-0.848;2023-08-12T01:46:42;14.73;;;4.90;;
42742;SDS011;28397;44.552;-0.848;2023-08-12T01:49:09;12.18;;;4.40;;
42742;SDS011;28397;44.552;-0.848;2023-08-12T01:51:34;13.35;;;5.00;;
42742;SDS011;28397;44.552;-0.848;2023-08-12T01:54:00;12.32;;;4.80;;
42742;SDS011;28397;44.552;-0.848;2023-08-12T01:56:26;15.23;;;5.20;;
42742;SDS011;28397;44.552;-0.848;2023-08-12T01:58:51;11.90;;;4.93;;
42742;SDS011;28397;44.552;-0.848;2023-08-12T02:01:17;14.38;;;5.32;;
42742;SDS011;28397;44.552;-0.848;2023-08-12T02:03:43;14.60;;;5.22;;
42742;SDS011;28397;44.552;-0.848;2023-08-12T02:06:08;12.07;;;4.85;;
42742;SDS011;28397;44.552;-0.848;2023-08-12T02:08:34;10.82;;;4.50;;
42742;SDS011;28397;44.552;-0.848;2023-08-12T02:11:00;14.30;;;4.88;;
42742;SDS011;28397;44.552;-0.848;2023-08-12T02:13:25;14.20;;;5.20;;
42742;SDS011;28397;44.552;-0.848;2023-08-12T02:15:51;14.50;;;5.50;;
42742;SDS011;28397;44.552;-0.848;2023-08-12T02:18:17;11.85;;;4.85;;
42742;SDS011;28397;44.552;-0.848;2023-08-12T02:20:42;11.35;;;4.85;;
42742;SDS011;28397;44.552;-0.848;2023-08-12T02:23:08;11.63;;;4.88;;
42742;SDS011;28397;44.552;-0.848;2023-08-12T02:25:33;13.70;;;5.10;;
42742;SDS011;28397;44.552;-0.848;2023-08-12T02:27:59;14.48;;;5.32;;
42742;SDS011;28397;44.552;-0.848;2023-08-12T02:30:25;11.80;;;4.40;;
42742;SDS011;28397;44.552;-0.848;2023-08-12T02:32:50;15.20;;;4.53;;
42742;SDS011;28397;44.552;-0.848;2023-08-12T02:35:20;13.55;;;4.18;;
42742;SDS011;28397;44.552;-0.848;2023-08-12T02:37:47;14.95;;;4.82;;
42742;SDS011;28397;44.552;-0.848;2023-08-12T02:40:13;12.32;;;3.75;;
42742;SDS011;28397;44.552;-0.848;2023-08-12T02:42:39;10.82;;;4.32;;
42742;SDS011;28397;44.552;-0.848;2023-08-12T02:45:05;11.20;;;4.22;;
42742;SDS011;28397;44.552;-0.848;2023-08-12T02:47:31;11.57;;;4.55;;
42742;SDS011;28397;44.552;-0.848;2023-08-12T02:49:56;11.30;;;4.45;;
42742;SDS011;28397;44.552;-0.848;2023-08-12T02:52:22;12.93;;;4.40;;
42742;SDS011;28397;44.552;-0.848;2023-08-12T02:54:48;11.43;;;4.60;;
42742;SDS011;28397;44.552;-0.848;2023-08-12T02:57:13;11.15;;;4.80;;
42742;SDS011;28397;44.552;-0.848;2023-08-12T02:59:39;10.68;;;4.60;;
42742;SDS011;28397;44.552;-0.848;2023-08-12T03:02:05;12.65;;;4.55;;
42742;SDS011;28397;44.552;-0.848;2023-08-12T03:04:31;9.52;;;4.30;;
42742;SDS011;28397;44.552;-0.848;2023-08-12T03:06:56;7.95;;;4.30;;
42742;SDS011;28397;44.552;-0.848;2023-08-12T03:09:22;9.88;;;4.85;;
42742;SDS011;28397;44.552;-0.848;2023-08-12T03:11:48;12.43;;;5.03;;
42742;SDS011;28397;44.552;-0.848;2023-08-12T03:14:13;14.27;;;5.43;;
42742;SDS011;28397;44.552;-0.848;2023-08-12T03:16:39;13.88;;;5.22;;
42742;SDS011;28397;44.552;-0.848;2023-08-12T03:19:05;14.18;;;5.78;;
42742;SDS011;28397;44.552;-0.848;2023-08-12T03:21:30;12.43;;;5.25;;
42742;SDS011;28397;44.552;-0.848;2023-08-12T03:23:56;13.13;;;5.72;;
42742;SDS011;28397;44.552;-0.848;2023-08-12T03:26:22;14.77;;;5.70;;
42742;SDS011;28397;44.552;-0.848;2023-08-12T03:28:47;12.48;;;4.85;;
42742;SDS011;28397;44.552;-0.848;2023-08-12T03:31:13;11.07;;;5.20;;
42742;SDS011;28397;44.552;-0.848;2023-08-12T03:33:39;10.52;;;5.32;;
42742;SDS011;28397;44.552;-0.848;2023-08-12T03:36:04;13.52;;;5.15;;
42742;SDS011;28397;44.552;-0.848;2023-08-12T03:38:31;12.60;;;5.30;;
42742;SDS011;28397;44.552;-0.848;2023-08-12T03:40:57;11.73;;;5.30;;
42742;SDS011;28397;44.552;-0.848;2023-08-12T03:43:22;13.27;;;5.85;;
42742;SDS011;28397;44.552;-0.848;2023-08-12T03:45:48;13.18;;;5.85;;
42742;SDS011;28397;44.552;-0.848;2023-08-12T03:48:14;10.82;;;5.50;;
42742;SDS011;28397;44.552;-0.848;2023-08-12T03:50:40;13.00;;;5.57;;
42742;SDS011;28397;44.552;-0.848;2023-08-12T03:53:07;10.80;;;5.10;;
42742;SDS011;28397;44.552;-0.848;2023-08-12T03:55:34;11.50;;;5.47;;
42742;SDS011;28397;44.552;-0.848;2023-08-12T03:57:59;13.27;;;5.65;;
42742;SDS011;28397;44.552;-0.848;2023-08-12T04:00:26;11.52;;;5.03;;
42742;SDS011;28397;44.552;-0.848;2023-08-12T04:02:51;11.75;;;4.95;;
42742;SDS011;28397;44.552;-0.848;2023-08-12T04:05:17;10.95;;;5.43;;
42742;SDS011;28397;44.552;-0.848;2023-08-12T04:07:43;9.27;;;4.80;;
42742;SDS011;28397;44.552;-0.848;2023-08-12T04:10:08;11.48;;;5.00;;
42742;SDS011;28397;44.552;-0.848;2023-08-12T04:12:35;9.05;;;4.63;;
42742;SDS011;28397;44.552;-0.848;2023-08-12T04:15:00;11.55;;;4.78;;
42742;SDS011;28397;44.552;-0.848;2023-08-12T04:17:29;13.00;;;5.18;;
42742;SDS011;28397;44.552;-0.848;2023-08-12T04:19:55;11.68;;;5.28;;
42742;SDS011;28397;44.552;-0.848;2023-08-12T04:22:21;10.50;;;4.53;;
42742;SDS011;28397;44.552;-0.848;2023-08-12T04:24:46;8.25;;;4.32;;
42742;SDS011;28397;44.552;-0.848;2023-08-12T04:27:12;12.73;;;4.93;;
42742;SDS011;28397;44.552;-0.848;2023-08-12T04:29:38;11.10;;;4.90;;
42742;SDS011;28397;44.552;-0.848;2023-08-12T04:32:03;11.23;;;4.88;;
42742;SDS011;28397;44.552;-0.848;2023-08-12T04:34:29;13.82;;;5.35;;
42742;SDS011;28397;44.552;-0.848;2023-08-12T04:36:55;11.10;;;5.38;;
42742;SDS011;28397;44.552;-0.848;2023-08-12T04:39:21;12.05;;;4.97;;
42742;SDS011;28397;44.552;-0.848;2023-08-12T04:41:47;11.65;;;5.25;;
42742;SDS011;28397;44.552;-0.848;2023-08-12T04:44:13;12.90;;;5.78;;
42742;SDS011;28397;44.552;-0.848;2023-08-12T04:46:39;9.35;;;4.72;;
42742;SDS011;28397;44.552;-0.848;2023-08-12T04:49:04;10.32;;;4.75;;
42742;SDS011;28397;44.552;-0.848;2023-08-12T04:51:30;12.98;;;5.10;;
42742;SDS011;28397;44.552;-0.848;2023-08-12T04:53:56;10.85;;;5.30;;
42742;SDS011;28397;44.552;-0.848;2023-08-12T04:56:23;13.30;;;5.38;;
42742;SDS011;28397;44.552;-0.848;2023-08-12T04:58:49;15.48;;;6.00;;
42742;SDS011;28397;44.552;-0.848;2023-08-12T05:01:15;18.33;;;5.78;;
42742;SDS011;28397;44.552;-0.848;2023-08-12T05:03:40;15.23;;;5.55;;
42742;SDS011;28397;44.552;-0.848;2023-08-12T05:06:06;10.38;;;5.45;;
42742;SDS011;28397;44.552;-0.848;2023-08-12T05:08:32;13.38;;;4.95;;
42742;SDS011;28397;44.552;-0.848;2023-08-12T05:10:57;12.07;;;4.93;;
42742;SDS011;28397;44.552;-0.848;2023-08-12T05:13:23;14.75;;;5.25;;
42742;SDS011;28397;44.552;-0.848;2023-08-12T05:15:49;12.02;;;5.30;;
42742;SDS011;28397;44.552;-0.848;2023-08-12T05:18:15;12.43;;;5.20;;
42742;SDS011;28397;44.552;-0.848;2023-08-12T05:20:41;14.93;;;5.47;;
42742;SDS011;28397;44.552;-0.848;2023-08-12T05:23:07;16.95;;;5.15;;
42742;SDS011;28397;44.552;-0.848;2023-08-12T05:25:33;11.32;;;4.97;;
42742;SDS011;28397;44.552;-0.848;2023-08-12T05:27:59;13.80;;;5.28;;
42742;SDS011;28397;44.552;-0.848;2023-08-12T05:30:25;12.43;;;5.38;;
42742;SDS011;28397;44.552;-0.848;2023-08-12T05:32:50;12.95;;;5.88;;
42742;SDS011;28397;44.552;-0.848;2023-08-12T05:35:16;13.43;;;5.72;;
42742;SDS011;28397;44.552;-0.848;2023-08-12T05:37:42;14.95;;;5.70;;
42742;SDS011;28397;44.552;-0.848;2023-08-12T05:40:08;16.58;;;5.38;;
42742;SDS011;28397;44.552;-0.848;2023-08-12T05:42:34;15.57;;;5.53;;
42742;SDS011;28397;44.552;-0.848;2023-08-12T05:45:01;13.88;;;5.47;;
42742;SDS011;28397;44.552;-0.848;2023-08-12T05:47:28;15.38;;;5.65;;
42742;SDS011;28397;44.552;-0.848;2023-08-12T05:49:53;16.88;;;6.07;;
42742;SDS011;28397;44.552;-0.848;2023-08-12T05:52:19;14.10;;;5.68;;
42742;SDS011;28397;44.552;-0.848;2023-08-12T05:54:45;16.25;;;6.25;;
42742;SDS011;28397;44.552;-0.848;2023-08-12T05:57:10;13.20;;;6.10;;
42742;SDS011;28397;44.552;-0.848;2023-08-12T05:59:36;12.15;;;5.40;;
42742;SDS011;28397;44.552;-0.848;2023-08-12T06:02:02;19.02;;;6.25;;
42742;SDS011;28397;44.552;-0.848;2023-08-12T06:04:28;12.95;;;6.25;;
42742;SDS011;28397;44.552;-0.848;2023-08-12T06:06:54;13.45;;;5.70;;
42742;SDS011;28397;44.552;-0.848;2023-08-12T06:09:20;13.50;;;6.20;;
42742;SDS011;28397;44.552;-0.848;2023-08-12T06:11:46;13.52;;;6.03;;
42742;SDS011;28397;44.552;-0.848;2023-08-12T06:14:12;15.90;;;6.10;;
42742;SDS011;28397;44.552;-0.848;2023-08-12T06:16:38;15.35;;;5.78;;
42742;SDS011;28397;44.552;-0.848;2023-08-12T06:19:03;13.45;;;6.00;;
42742;SDS011;28397;44.552;-0.848;2023-08-12T06:21:29;16.83;;;6.35;;
42742;SDS011;28397;44.552;-0.848;2023-08-12T06:23:55;15.95;;;6.10;;
42742;SDS011;28397;44.552;-0.848;2023-08-12T06:26:21;13.15;;;6.05;;
42742;SDS011;28397;44.552;-0.848;2023-08-12T06:28:46;13.60;;;5.30;;
42742;SDS011;28397;44.552;-0.848;2023-08-12T06:31:12;13.85;;;5.63;;
42742;SDS011;28397;44.552;-0.848;2023-08-12T06:33:38;14.23;;;5.97;;
42742;SDS011;28397;44.552;-0.848;2023-08-12T06:36:03;14.43;;;5.53;;
42742;SDS011;28397;44.552;-0.848;2023-08-12T06:38:29;14.48;;;6.05;;
42742;SDS011;28397;44.552;-0.848;2023-08-12T06:40:55;13.98;;;6.10;;
42742;SDS011;28397;44.552;-0.848;2023-08-12T06:43:21;14.15;;;6.32;;
42742;SDS011;28397;44.552;-0.848;2023-08-12T06:45:46;13.02;;;5.45;;
42742;SDS011;28397;44.552;-0.848;2023-08-12T06:48:12;15.63;;;5.78;;
42742;SDS011;28397;44.552;-0.848;2023-08-12T06:50:38;15.52;;;5.70;;
42742;SDS011;28397;44.552;-0.848;2023-08-12T06:53:03;12.07;;;5.10;;
42742;SDS011;28397;44.552;-0.848;2023-08-12T06:55:29;15.85;;;5.55;;
42742;SDS011;28397;44.552;-0.848;2023-08-12T06:57:55;15.18;;;5.75;;
42742;SDS011;28397;44.552;-0.848;2023-08-12T07:00:21;14.10;;;5.55;;
42742;SDS011;28397;44.552;-0.848;2023-08-12T07:02:46;14.30;;;6.32;;
42742;SDS011;28397;44.552;-0.848;2023-08-12T07:05:12;12.48;;;5.75;;
42742;SDS011;28397;44.552;-0.848;2023-08-12T07:07:38;15.73;;;6.20;;
42742;SDS011;28397;44.552;-0.848;2023-08-12T07:10:03;14.77;;;5.57;;
42742;SDS011;28397;44.552;-0.848;2023-08-12T07:12:31;18.77;;;5.95;;
42742;SDS011;28397;44.552;-0.848;2023-08-12T07:14:58;11.65;;;5.28;;
42742;SDS011;28397;44.552;-0.848;2023-08-12T07:17:24;10.27;;;5.68;;
42742;SDS011;28397;44.552;-0.848;2023-08-12T07:19:49;16.00;;;6.10;;
42742;SDS011;28397;44.552;-0.848;2023-08-12T07:22:15;14.10;;;6.10;;
42742;SDS011;28397;44.552;-0.848;2023-08-12T07:24:44;18.25;;;6.10;;
42742;SDS011;28397;44.552;-0.848;2023-08-12T07:27:10;15.80;;;6.63;;
42742;SDS011;28397;44.552;-0.848;2023-08-12T07:29:35;13.88;;;5.60;;
42742;SDS011;28397;44.552;-0.848;2023-08-12T07:32:01;15.23;;;5.55;;
42742;SDS011;28397;44.552;-0.848;2023-08-12T07:34:27;12.07;;;5.20;;
42742;SDS011;28397;44.552;-0.848;2023-08-12T07:36:52;12.80;;;5.78;;
42742;SDS011;28397;44.552;-0.848;2023-08-12T07:39:18;13.10;;;5.57;;
42742;SDS011;28397;44.552;-0.848;2023-08-12T07:41:44;15.15;;;5.40;;
42742;SDS011;28397;44.552;-0.848;2023-08-12T07:44:10;14.10;;;5.03;;
42742;SDS011;28397;44.552;-0.848;2023-08-12T07:46:35;14.52;;;4.80;;
42742;SDS011;28397;44.552;-0.848;2023-08-12T07:49:01;12.23;;;5.07;;
42742;SDS011;28397;44.552;-0.848;2023-08-12T07:51:27;13.65;;;5.25;;
42742;SDS011;28397;44.552;-0.848;2023-08-12T07:53:52;13.50;;;4.75;;
42742;SDS011;28397;44.552;-0.848;2023-08-12T07:56:18;10.88;;;4.10;;
42742;SDS011;28397;44.552;-0.848;2023-08-12T07:58:44;12.85;;;4.20;;
42742;SDS011;28397;44.552;-0.848;2023-08-12T08:01:10;14.63;;;4.50;;
42742;SDS011;28397;44.552;-0.848;2023-08-12T08:03:36;11.25;;;4.28;;
42742;SDS011;28397;44.552;-0.848;2023-08-12T08:06:02;13.68;;;4.75;;
42742;SDS011;28397;44.552;-0.848;2023-08-12T08:08:27;12.20;;;4.18;;
42742;SDS011;28397;44.552;-0.848;2023-08-12T08:10:53;10.95;;;4.00;;
42742;SDS011;28397;44.552;-0.848;2023-08-12T08:13:19;13.40;;;4.78;;
42742;SDS011;28397;44.552;-0.848;2023-08-12T08:15:45;12.00;;;4.78;;
42742;SDS011;28397;44.552;-0.848;2023-08-12T08:18:10;12.07;;;4.50;;
42742;SDS011;28397;44.552;-0.848;2023-08-12T08:20:36;11.13;;;4.55;;
42742;SDS011;28397;44.552;-0.848;2023-08-12T08:23:02;12.05;;;4.70;;
42742;SDS011;28397;44.552;-0.848;2023-08-12T08:25:28;10.45;;;4.20;;
42742;SDS011;28397;44.552;-0.848;2023-08-12T08:27:53;13.68;;;4.85;;
42742;SDS011;28397;44.552;-0.848;2023-08-12T08:30:19;12.43;;;5.00;;
42742;SDS011;28397;44.552;-0.848;2023-08-12T08:32:45;11.32;;;4.45;;
42742;SDS011;28397;44.552;-0.848;2023-08-12T08:35:11;14.27;;;4.55;;
42742;SDS011;28397;44.552;-0.848;2023-08-12T08:37:37;10.57;;;4.25;;
42742;SDS011;28397;44.552;-0.848;2023-08-12T08:40:03;10.02;;;4.75;;
42742;SDS011;28397;44.552;-0.848;2023-08-12T08:42:29;13.07;;;5.18;;
42742;SDS011;28397;44.552;-0.848;2023-08-12T08:44:57;10.13;;;4.55;;
42742;SDS011;28397;44.552;-0.848;2023-08-12T08:47:27;12.43;;;4.28;;
42742;SDS011;28397;44.552;-0.848;2023-08-12T08:49:55;12.98;;;5.07;;
42742;SDS011;28397;44.552;-0.848;2023-08-12T08:52:24;11.43;;;4.82;;
42742;SDS011;28397;44.552;-0.848;2023-08-12T08:54:51;10.20;;;4.28;;
42742;SDS011;28397;44.552;-0.848;2023-08-12T08:57:17;13.90;;;4.82;;
42742;SDS011;28397;44.552;-0.848;2023-08-12T08:59:44;12.15;;;4.90;;
42742;SDS011;28397;44.552;-0.848;2023-08-12T09:02:15;14.50;;;5.07;;
42742;SDS011;28397;44.552;-0.848;2023-08-12T09:04:43;14.27;;;5.32;;
42742;SDS011;28397;44.552;-0.848;2023-08-12T09:07:11;17.48;;;4.95;;
42742;SDS011;28397;44.552;-0.848;2023-08-12T09:09:38;12.70;;;4.82;;
42742;SDS011;28397;44.552;-0.848;2023-08-12T09:12:09;10.65;;;4.47;;
42742;SDS011;28397;44.552;-0.848;2023-08-12T09:14:38;12.18;;;4.88;;
42742;SDS011;28397;44.552;-0.848;2023-08-12T09:17:04;15.80;;;5.38;;
42742;SDS011;28397;44.552;-0.848;2023-08-12T09:19:30;13.25;;;4.95;;
42742;SDS011;28397;44.552;-0.848;2023-08-12T09:21:55;11.73;;;4.63;;
42742;SDS011;28397;44.552;-0.848;2023-08-12T09:24:24;11.23;;;4.57;;
42742;SDS011;28397;44.552;-0.848;2023-08-12T09:26:52;11.70;;;4.70;;
42742;SDS011;28397;44.552;-0.848;2023-08-12T09:29:18;10.40;;;4.82;;
42742;SDS011;28397;44.552;-0.848;2023-08-12T09:31:47;11.82;;;5.00;;
42742;SDS011;28397;44.552;-0.848;2023-08-12T09:34:12;11.70;;;5.10;;
42742;SDS011;28397;44.552;-0.848;2023-08-12T09:36:38;11.50;;;4.82;;
42742;SDS011;28397;44.552;-0.848;2023-08-12T09:39:07;12.88;;;5.35;;
42742;SDS011;28397;44.552;-0.848;2023-08-12T09:41:37;12.90;;;4.93;;
42742;SDS011;28397;44.552;-0.848;2023-08-12T09:44:03;10.07;;;4.63;;
42742;SDS011;28397;44.552;-0.848;2023-08-12T09:46:29;13.90;;;5.30;;
42742;SDS011;28397;44.552;-0.848;2023-08-12T09:48:58;12.02;;;5.15;;
42742;SDS011;28397;44.552;-0.848;2023-08-12T09:51:24;10.45;;;5.03;;
42742;SDS011;28397;44.552;-0.848;2023-08-12T09:53:51;10.02;;;5.43;;
42742;SDS011;28397;44.552;-0.848;2023-08-12T09:56:18;14.02;;;5.25;;
42742;SDS011;28397;44.552;-0.848;2023-08-12T09:58:47;10.45;;;5.00;;
42742;SDS011;28397;44.552;-0.848;2023-08-12T10:01:16;11.48;;;4.75;;
42742;SDS011;28397;44.552;-0.848;2023-08-12T10:03:45;9.98;;;4.85;;
42742;SDS011;28397;44.552;-0.848;2023-08-12T10:06:16;10.95;;;4.70;;
42742;SDS011;28397;44.552;-0.848;2023-08-12T10:08:42;12.60;;;5.32;;
42742;SDS011;28397;44.552;-0.848;2023-08-12T10:11:10;11.65;;;4.53;;
42742;SDS011;28397;44.552;-0.848;2023-08-12T10:13:37;11.52;;;5.00;;
42742;SDS011;28397;44.552;-0.848;2023-08-12T10:16:03;9.23;;;4.70;;
42742;SDS011;28397;44.552;-0.848;2023-08-12T10:18:29;10.15;;;4.68;;
42742;SDS011;28397;44.552;-0.848;2023-08-12T10:20:59;9.50;;;4.88;;
42742;SDS011;28397;44.552;-0.848;2023-08-12T10:23:25;11.13;;;4.88;;
42742;SDS011;28397;44.552;-0.848;2023-08-12T10:25:53;9.52;;;4.70;;
42742;SDS011;28397;44.552;-0.848;2023-08-12T10:28:19;11.95;;;4.80;;
42742;SDS011;28397;44.552;-0.848;2023-08-12T10:30:45;9.38;;;4.95;;
42742;SDS011;28397;44.552;-0.848;2023-08-12T10:33:13;13.32;;;5.38;;
42742;SDS011;28397;44.552;-0.848;2023-08-12T10:35:48;10.68;;;4.43;;
42742;SDS011;28397;44.552;-0.848;2023-08-12T10:38:17;8.43;;;4.60;;
42742;SDS011;28397;44.552;-0.848;2023-08-12T10:40:47;11.30;;;5.05;;
42742;SDS011;28397;44.552;-0.848;2023-08-12T10:43:13;11.02;;;4.88;;
42742;SDS011;28397;44.552;-0.848;2023-08-12T10:45:51;8.55;;;4.38;;
42742;SDS011;28397;44.552;-0.848;2023-08-12T10:50:56;10.02;;;5.47;;
42742;SDS011;28397;44.552;-0.848;2023-08-12T10:53:28;11.25;;;4.95;;
42742;SDS011;28397;44.552;-0.848;2023-08-12T10:56:07;11.05;;;4.80;;
42742;SDS011;28397;44.552;-0.848;2023-08-12T10:58:46;11.43;;;5.00;;
42742;SDS011;28397;44.552;-0.848;2023-08-12T11:01:19;11.52;;;4.47;;
42742;SDS011;28397;44.552;-0.848;2023-08-12T11:03:45;8.23;;;4.57;;
42742;SDS011;28397;44.552;-0.848;2023-08-12T11:06:12;9.23;;;4.05;;
42742;SDS011;28397;44.552;-0.848;2023-08-12T11:08:51;10.35;;;4.60;;
42742;SDS011;28397;44.552;-0.848;2023-08-12T11:11:24;7.72;;;4.13;;
42742;SDS011;28397;44.552;-0.848;2023-08-12T11:13:56;8.48;;;4.18;;
42742;SDS011;28397;44.552;-0.848;2023-08-12T11:16:35;11.82;;;4.63;;
42742;SDS011;28397;44.552;-0.848;2023-08-12T11:19:02;9.20;;;4.78;;
42742;SDS011;28397;44.552;-0.848;2023-08-12T11:21:28;9.35;;;4.53;;
42742;SDS011;28397;44.552;-0.848;2023-08-12T11:23:55;9.55;;;4.80;;
42742;SDS011;28397;44.552;-0.848;2023-08-12T11:26:22;10.80;;;5.30;;
42742;SDS011;28397;44.552;-0.848;2023-08-12T11:28:48;9.40;;;4.60;;
42742;SDS011;28397;44.552;-0.848;2023-08-12T11:31:14;8.27;;;4.28;;
42742;SDS011;28397;44.552;-0.848;2023-08-12T11:33:41;7.50;;;3.92;;
42742;SDS011;28397;44.552;-0.848;2023-08-12T11:36:07;7.15;;;3.47;;
42742;SDS011;28397;44.552;-0.848;2023-08-12T11:38:32;5.10;;;3.30;;
42742;SDS011;28397;44.552;-0.848;2023-08-12T11:41:00;6.65;;;3.58;;
42742;SDS011;28397;44.552;-0.848;2023-08-12T11:43:27;7.40;;;3.70;;
42742;SDS011;28397;44.552;-0.848;2023-08-12T11:45:55;6.80;;;3.40;;
42742;SDS011;28397;44.552;-0.848;2023-08-12T11:48:21;6.18;;;3.42;;
42742;SDS011;28397;44.552;-0.848;2023-08-12T11:50:48;5.70;;;3.00;;
42742;SDS011;28397;44.552;-0.848;2023-08-12T11:53:15;7.70;;;3.40;;
42742;SDS011;28397;44.552;-0.848;2023-08-12T11:55:41;7.13;;;3.50;;
42742;SDS011;28397;44.552;-0.848;2023-08-12T11:58:06;6.97;;;3.85;;
42742;SDS011;28397;44.552;-0.848;2023-08-12T12:00:32;6.88;;;3.83;;
42742;SDS011;28397;44.552;-0.848;2023-08-12T12:02:58;6.13;;;3.55;;
42742;SDS011;28397;44.552;-0.848;2023-08-12T12:05:25;7.85;;;3.97;;
42742;SDS011;28397;44.552;-0.848;2023-08-12T12:07:52;6.25;;;3.47;;
42742;SDS011;28397;44.552;-0.848;2023-08-12T12:10:25;5.90;;;3.28;;
42742;SDS011;28397;44.552;-0.848;2023-08-12T12:12:54;7.47;;;3.55;;
42742;SDS011;28397;44.552;-0.848;2023-08-12T12:15:20;6.15;;;3.70;;
42742;SDS011;28397;44.552;-0.848;2023-08-12T12:17:49;6.43;;;3.60;;
42742;SDS011;28397;44.552;-0.848;2023-08-12T12:20:15;7.38;;;3.80;;
42742;SDS011;28397;44.552;-0.848;2023-08-12T12:22:42;7.55;;;4.13;;
42742;SDS011;28397;44.552;-0.848;2023-08-12T12:25:10;6.13;;;3.90;;
42742;SDS011;28397;44.552;-0.848;2023-08-12T12:27:38;5.15;;;3.53;;
42742;SDS011;28397;44.552;-0.848;2023-08-12T12:30:05;4.97;;;2.80;;
42742;SDS011;28397;44.552;-0.848;2023-08-12T12:32:32;5.10;;;2.70;;
42742;SDS011;28397;44.552;-0.848;2023-08-12T12:34:59;5.63;;;2.75;;
42742;SDS011;28397;44.552;-0.848;2023-08-12T12:37:25;2.75;;;2.20;;
42742;SDS011;28397;44.552;-0.848;2023-08-12T12:39:50;3.92;;;2.38;;
42742;SDS011;28397;44.552;-0.848;2023-08-12T12:42:16;4.97;;;2.85;;
42742;SDS011;28397;44.552;-0.848;2023-08-12T12:44:42;5.13;;;3.10;;
42742;SDS011;28397;44.552;-0.848;2023-08-12T12:47:08;5.07;;;2.70;;
42742;SDS011;28397;44.552;-0.848;2023-08-12T12:49:35;6.10;;;3.10;;
42742;SDS011;28397;44.552;-0.848;2023-08-12T12:52:01;8.32;;;3.22;;
42742;SDS011;28397;44.552;-0.848;2023-08-12T12:54:27;5.80;;;3.00;;
42742;SDS011;28397;44.552;-0.848;2023-08-12T12:56:52;4.63;;;2.60;;
42742;SDS011;28397;44.552;-0.848;2023-08-12T12:59:18;2.83;;;2.17;;
42742;SDS011;28397;44.552;-0.848;2023-08-12T13:01:44;3.28;;;2.20;;
42742;SDS011;28397;44.552;-0.848;2023-08-12T13:04:10;3.13;;;2.03;;
42742;SDS011;28397;44.552;-0.848;2023-08-12T13:06:35;2.50;;;2.20;;
42742;SDS011;28397;44.552;-0.848;2023-08-12T13:09:02;3.85;;;2.63;;
42742;SDS011;28397;44.552;-0.848;2023-08-12T13:11:28;3.30;;;2.80;;
42742;SDS011;28397;44.552;-0.848;2023-08-12T13:13:54;3.60;;;2.72;;
42742;SDS011;28397;44.552;-0.848;2023-08-12T13:16:20;4.45;;;3.17;;
42742;SDS011;28397;44.552;-0.848;2023-08-12T13:18:45;5.47;;;3.30;;
42742;SDS011;28397;44.552;-0.848;2023-08-12T13:21:11;6.63;;;3.47;;
42742;SDS011;28397;44.552;-0.848;2023-08-12T13:23:37;8.02;;;4.07;;
42742;SDS011;28397;44.552;-0.848;2023-08-12T13:26:03;8.85;;;3.70;;
42742;SDS011;28397;44.552;-0.848;2023-08-12T13:28:29;8.52;;;4.05;;
42742;SDS011;28397;44.552;-0.848;2023-08-12T13:30:55;8.23;;;4.68;;
42742;SDS011;28397;44.552;-0.848;2023-08-12T13:33:20;10.30;;;4.32;;
42742;SDS011;28397;44.552;-0.848;2023-08-12T13:35:46;12.27;;;4.35;;
42742;SDS011;28397;44.552;-0.848;2023-08-12T13:38:12;6.20;;;2.88;;
42742;SDS011;28397;44.552;-0.848;2023-08-12T13:40:38;3.63;;;2.00;;
42742;SDS011;28397;44.552;-0.848;2023-08-12T13:43:03;4.00;;;2.00;;
42742;SDS011;28397;44.552;-0.848;2023-08-12T13:45:29;4.72;;;1.90;;
42742;SDS011;28397;44.552;-0.848;2023-08-12T13:47:54;4.65;;;2.25;;
42742;SDS011;28397;44.552;-0.848;2023-08-12T13:50:20;4.65;;;1.80;;
42742;SDS011;28397;44.552;-0.848;2023-08-12T13:52:46;6.05;;;2.00;;
42742;SDS011;28397;44.552;-0.848;2023-08-12T13:55:12;4.00;;;1.80;;
42742;SDS011;28397;44.552;-0.848;2023-08-12T13:57:38;4.03;;;1.67;;
42742;SDS011;28397;44.552;-0.848;2023-08-12T14:00:03;3.90;;;1.65;;
42742;SDS011;28397;44.552;-0.848;2023-08-12T14:02:34;3.05;;;1.40;;
42742;SDS011;28397;44.552;-0.848;2023-08-12T14:05:03;4.95;;;1.70;;
42742;SDS011;28397;44.552;-0.848;2023-08-12T14:07:29;4.57;;;1.52;;
42742;SDS011;28397;44.552;-0.848;2023-08-12T14:09:55;3.30;;;1.33;;
42742;SDS011;28397;44.552;-0.848;2023-08-12T14:12:21;3.88;;;1.45;;
42742;SDS011;28397;44.552;-0.848;2023-08-12T14:14:47;4.35;;;1.70;;
42742;SDS011;28397;44.552;-0.848;2023-08-12T14:17:13;5.15;;;1.60;;
42742;SDS011;28397;44.552;-0.848;2023-08-12T14:19:41;3.78;;;1.55;;
42742;SDS011;28397;44.552;-0.848;2023-08-12T14:22:08;4.47;;;1.63;;
42742;SDS011;28397;44.552;-0.848;2023-08-12T14:24:33;4.28;;;1.60;;